»·PEaware :: N973SE L88-KBFL

N973SE :: L88-KBFL

FLIGHT INFORMATION

Flight Status: Arrived
Operator: Privately registered:
United States
More flights under this callsign
Pilot: Stig E. (4778)
Aircraft: Unknown
(DA62)
More flights by this aircraft type
Origin: L88 New Cuyama
United States
Destination: KBFL Meadows
United States
More flights between these airports :: More routes between these airports
Route: GMN FASTO2
File this flight plan on PilotEdge
Remarks:
Altitude:
(Current/Filed)
9,500ft
Speed:
(Current/Filed)
150kts
Departed: 24-Jun-18 01:32 AM
Arrived: 24-Jun-18 02:11 AM
Distance/Time
Traveled:
43nm/0:39
Distance/Time
To Go:
Arrived

Flight Plot

Page will automatically refresh every two minutes.

Flight plan parsing failed; only flown route is shown


Map Options




Map Legend


Flown Route
Filed Route
Departure Airport
Arrival Airport
Navaid (VOR, NDB)
Fix

Horizontal Profiles

Position Reports

Time Latitude Longitude Heading Altitude Ground
Speed
24-Jun-18 01:22 34.942472 -119.690557 205 2156ft 0kts
24-Jun-18 01:23 34.942472 -119.690557 205 2156ft 0kts
24-Jun-18 01:24 34.942472 -119.690557 205 2156ft 0kts
24-Jun-18 01:25 34.942472 -119.690557 205 2156ft 0kts
24-Jun-18 01:26 34.942472 -119.690557 205 2156ft 0kts
24-Jun-18 01:27 34.942472 -119.690557 205 2156ft 0kts
24-Jun-18 01:28 34.942472 -119.690557 205 2156ft 0kts
24-Jun-18 01:29 34.942472 -119.690557 205 2156ft 0kts
24-Jun-18 01:30 34.942472 -119.690557 205 2156ft 0kts
24-Jun-18 01:31 34.942656 -119.691212 269 2152ft 7kts
24-Jun-18 01:32 34.939989 -119.685642 116 2177ft 87kts
24-Jun-18 01:33 34.930063 -119.655918 98 3194ft 98kts
24-Jun-18 01:34 34.925531 -119.623487 97 4423ft 98kts
24-Jun-18 01:35 34.920734 -119.590813 98 5624ft 99kts
24-Jun-18 01:36 34.915694 -119.557592 98 6813ft 101kts
24-Jun-18 01:37 34.910459 -119.523736 98 7987ft 103kts
24-Jun-18 01:38 34.905305 -119.490766 98 9083ft 106kts
24-Jun-18 01:39 34.899010 -119.450517 98 9590ft 152kts
24-Jun-18 01:40 34.890342 -119.395652 99 9558ft 177kts
24-Jun-18 01:41 34.880752 -119.335606 100 9531ft 182kts
24-Jun-18 01:42 34.870899 -119.275043 99 9507ft 184kts
24-Jun-18 01:43 34.861438 -119.216102 99 9513ft 183kts
24-Jun-18 01:44 34.851687 -119.155211 99 9521ft 183kts
24-Jun-18 01:45 34.841893 -119.094165 99 9528ft 183kts
24-Jun-18 01:46 34.832095 -119.033269 99 9537ft 183kts
24-Jun-18 01:47 34.822564 -118.972584 98 9584ft 182kts
24-Jun-18 01:48 34.813695 -118.911572 98 9630ft 183kts
24-Jun-18 01:49 34.805868 -118.850915 78 9662ft 183kts
24-Jun-18 01:50 34.847085 -118.839036 348 9683ft 178kts
24-Jun-18 01:51 34.895183 -118.852691 348 9379ft 177kts
24-Jun-18 01:52 34.943729 -118.859820 355 8691ft 174kts
24-Jun-18 01:53 34.991846 -118.862573 358 8017ft 172kts
24-Jun-18 01:54 35.039341 -118.864789 358 7353ft 170kts
24-Jun-18 01:55 35.086246 -118.864914 0 6612ft 168kts
24-Jun-18 01:56 35.132315 -118.865212 0 5794ft 167kts
24-Jun-18 01:57 35.178665 -118.865626 0 4983ft 166kts
24-Jun-18 01:58 35.183574 -118.865673 0 4898ft 166kts
24-Jun-18 01:59 35.205594 -118.865904 0 4798ft 152kts
24-Jun-18 02:00 35.242095 -118.866747 359 4789ft 107kts
24-Jun-18 02:01 35.268141 -118.867757 359 4797ft 89kts
24-Jun-18 02:02 35.288007 -118.880832 319 4804ft 87kts
24-Jun-18 02:03 35.305715 -118.903140 317 4685ft 91kts
24-Jun-18 02:04 35.324384 -118.924882 319 4062ft 93kts
24-Jun-18 02:05 35.342918 -118.946889 317 3327ft 92kts
24-Jun-18 02:06 35.360943 -118.969254 316 2494ft 92kts
24-Jun-18 02:07 35.379192 -118.991174 319 1864ft 92kts
24-Jun-18 02:08 35.397335 -119.012304 318 1450ft 89kts
24-Jun-18 02:09 35.414884 -119.033734 317 909ft 89kts
24-Jun-18 02:10 35.431970 -119.053999 318 532ft 81kts
24-Jun-18 02:11 35.438243 -119.059986 109 497ft 0kts
24-Jun-18 02:12 35.438243 -119.059986 109 497ft 0kts
24-Jun-18 02:13 35.435821 -119.055338 21 497ft 17kts
24-Jun-18 02:14 35.436723 -119.054359 233 497ft 0kts
24-Jun-18 02:15 35.436723 -119.054359 233 497ft 0kts

Navigation Log

Ident Type
Flight plan parsing failed, navigation log unavailable